sensor_id;sensor_type;location;lat;lon;timestamp;temperature;humidity
25825;DHT22;13658;44.534;18.694;2022-09-21T00:01:11;8.80;99.90
25825;DHT22;13658;44.534;18.694;2022-09-21T00:03:38;8.80;99.90
25825;DHT22;13658;44.534;18.694;2022-09-21T00:06:09;8.90;99.90
25825;DHT22;13658;44.534;18.694;2022-09-21T00:08:36;9.00;99.90
25825;DHT22;13658;44.534;18.694;2022-09-21T00:11:02;8.90;99.90
25825;DHT22;13658;44.534;18.694;2022-09-21T00:13:29;9.00;99.90
25825;DHT22;13658;44.534;18.694;2022-09-21T00:15:57;8.90;99.90
25825;DHT22;13658;44.534;18.694;2022-09-21T00:18:24;8.80;99.90
25825;DHT22;13658;44.534;18.694;2022-09-21T00:20:50;8.80;99.90
25825;DHT22;13658;44.534;18.694;2022-09-21T00:23:17;8.80;99.90
25825;DHT22;13658;44.534;18.694;2022-09-21T00:25:44;8.80;99.90
25825;DHT22;13658;44.534;18.694;2022-09-21T00:28:10;8.70;99.90
25825;DHT22;13658;44.534;18.694;2022-09-21T00:30:36;8.70;99.90
25825;DHT22;13658;44.534;18.694;2022-09-21T00:33:02;8.70;99.90
25825;DHT22;13658;44.534;18.694;2022-09-21T00:35:28;8.70;99.90
25825;DHT22;13658;44.534;18.694;2022-09-21T00:37:54;8.70;99.90
25825;DHT22;13658;44.534;18.694;2022-09-21T00:40:20;8.70;99.90
25825;DHT22;13658;44.534;18.694;2022-09-21T00:42:46;8.60;99.90
25825;DHT22;13658;44.534;18.694;2022-09-21T00:45:12;8.60;99.90
25825;DHT22;13658;44.534;18.694;2022-09-21T00:47:47;8.60;99.90
25825;DHT22;13658;44.534;18.694;2022-09-21T00:50:18;8.60;99.90
25825;DHT22;13658;44.534;18.694;2022-09-21T00:52:51;8.60;99.90
25825;DHT22;13658;44.534;18.694;2022-09-21T00:55:25;8.60;99.90
25825;DHT22;13658;44.534;18.694;2022-09-21T00:58:02;8.60;99.90
25825;DHT22;13658;44.534;18.694;2022-09-21T01:00:29;8.60;99.90
25825;DHT22;13658;44.534;18.694;2022-09-21T01:02:55;8.60;99.90
25825;DHT22;13658;44.534;18.694;2022-09-21T01:05:29;8.60;99.90
25825;DHT22;13658;44.534;18.694;2022-09-21T01:07:57;8.60;99.90
25825;DHT22;13658;44.534;18.694;2022-09-21T01:10:24;8.60;99.90
25825;DHT22;13658;44.534;18.694;2022-09-21T01:13:27;8.60;99.90
25825;DHT22;13658;44.534;18.694;2022-09-21T01:21:59;8.60;99.90
25825;DHT22;13658;44.534;18.694;2022-09-21T01:32:43;8.50;99.90
25825;DHT22;13658;44.534;18.694;2022-09-21T01:35:19;8.50;99.90
25825;DHT22;13658;44.534;18.694;2022-09-21T01:37:59;8.50;99.90
25825;DHT22;13658;44.534;18.694;2022-09-21T01:40:37;8.60;99.90
25825;DHT22;13658;44.534;18.694;2022-09-21T01:43:05;8.60;99.90
25825;DHT22;13658;44.534;18.694;2022-09-21T01:45:35;8.50;99.90
25825;DHT22;13658;44.534;18.694;2022-09-21T01:48:02;8.60;99.90
25825;DHT22;13658;44.534;18.694;2022-09-21T01:50:34;8.70;99.90
25825;DHT22;13658;44.534;18.694;2022-09-21T01:53:12;8.60;99.90
25825;DHT22;13658;44.534;18.694;2022-09-21T01:55:53;8.70;99.90
25825;DHT22;13658;44.534;18.694;2022-09-21T01:58:31;8.70;99.90
25825;DHT22;13658;44.534;18.694;2022-09-21T02:00:59;8.70;99.90
25825;DHT22;13658;44.534;18.694;2022-09-21T02:03:38;8.80;99.90
25825;DHT22;13658;44.534;18.694;2022-09-21T02:06:07;8.80;99.90
25825;DHT22;13658;44.534;18.694;2022-09-21T02:08:35;8.70;99.90
25825;DHT22;13658;44.534;18.694;2022-09-21T02:11:03;8.70;99.90
25825;DHT22;13658;44.534;18.694;2022-09-21T02:13:35;8.70;99.90
25825;DHT22;13658;44.534;18.694;2022-09-21T02:24:45;8.60;99.90
25825;DHT22;13658;44.534;18.694;2022-09-21T02:27:35;8.60;99.90
25825;DHT22;13658;44.534;18.694;2022-09-21T02:30:23;8.70;99.90
25825;DHT22;13658;44.534;18.694;2022-09-21T02:33:30;8.70;99.90
25825;DHT22;13658;44.534;18.694;2022-09-21T02:36:25;8.70;99.90
25825;DHT22;13658;44.534;18.694;2022-09-21T02:39:03;8.70;99.90
25825;DHT22;13658;44.534;18.694;2022-09-21T02:42:36;8.70;99.90
25825;DHT22;13658;44.534;18.694;2022-09-21T02:44:35;8.60;99.90
25825;DHT22;13658;44.534;18.694;2022-09-21T02:47:21;8.60;99.90
25825;DHT22;13658;44.534;18.694;2022-09-21T02:49:57;8.60;99.90
25825;DHT22;13658;44.534;18.694;2022-09-21T02:52:27;8.60;99.90
25825;DHT22;13658;44.534;18.694;2022-09-21T02:54:55;8.60;99.90
25825;DHT22;13658;44.534;18.694;2022-09-21T02:57:22;8.50;99.90
25825;DHT22;13658;44.534;18.694;2022-09-21T02:59:50;8.50;99.90
25825;DHT22;13658;44.534;18.694;2022-09-21T03:02:17;8.60;99.90
25825;DHT22;13658;44.534;18.694;2022-09-21T03:04:44;8.60;99.90
25825;DHT22;13658;44.534;18.694;2022-09-21T03:07:15;8.60;99.90
25825;DHT22;13658;44.534;18.694;2022-09-21T03:09:41;8.60;99.90
25825;DHT22;13658;44.534;18.694;2022-09-21T03:12:07;8.60;99.90
25825;DHT22;13658;44.534;18.694;2022-09-21T03:14:33;8.60;99.90
25825;DHT22;13658;44.534;18.694;2022-09-21T03:16:59;8.50;99.90
25825;DHT22;13658;44.534;18.694;2022-09-21T03:19:26;8.50;99.90
25825;DHT22;13658;44.534;18.694;2022-09-21T03:21:53;8.50;99.90
25825;DHT22;13658;44.534;18.694;2022-09-21T03:24:19;8.50;99.90
25825;DHT22;13658;44.534;18.694;2022-09-21T03:27:05;8.40;99.90
25825;DHT22;13658;44.534;18.694;2022-09-21T03:29:31;8.40;99.90
25825;DHT22;13658;44.534;18.694;2022-09-21T03:31:57;8.40;99.90
25825;DHT22;13658;44.534;18.694;2022-09-21T03:34:23;8.40;99.90
25825;DHT22;13658;44.534;18.694;2022-09-21T03:36:49;8.40;99.90
25825;DHT22;13658;44.534;18.694;2022-09-21T03:39:15;8.40;99.90
25825;DHT22;13658;44.534;18.694;2022-09-21T03:41:41;8.40;99.90
25825;DHT22;13658;44.534;18.694;2022-09-21T03:44:07;8.40;99.90
25825;DHT22;13658;44.534;18.694;2022-09-21T03:46:33;8.40;99.90
25825;DHT22;13658;44.534;18.694;2022-09-21T03:49:00;8.40;99.90
25825;DHT22;13658;44.534;18.694;2022-09-21T03:51:28;8.30;99.90
25825;DHT22;13658;44.534;18.694;2022-09-21T03:53:56;8.30;99.90
25825;DHT22;13658;44.534;18.694;2022-09-21T03:56:22;8.20;99.90
25825;DHT22;13658;44.534;18.694;2022-09-21T03:58:48;8.20;99.90
25825;DHT22;13658;44.534;18.694;2022-09-21T04:01:14;8.20;99.90
25825;DHT22;13658;44.534;18.694;2022-09-21T04:03:40;8.20;99.90
25825;DHT22;13658;44.534;18.694;2022-09-21T04:06:10;8.20;99.90
25825;DHT22;13658;44.534;18.694;2022-09-21T04:08:37;8.20;99.90
25825;DHT22;13658;44.534;18.694;2022-09-21T04:11:15;8.10;99.90
25825;DHT22;13658;44.534;18.694;2022-09-21T04:13:42;8.00;99.90
25825;DHT22;13658;44.534;18.694;2022-09-21T04:16:09;8.00;99.90
25825;DHT22;13658;44.534;18.694;2022-09-21T04:18:36;8.00;99.90
25825;DHT22;13658;44.534;18.694;2022-09-21T04:21:04;8.00;99.90
25825;DHT22;13658;44.534;18.694;2022-09-21T04:23:31;8.00;99.90
25825;DHT22;13658;44.534;18.694;2022-09-21T04:25:57;8.10;99.90
25825;DHT22;13658;44.534;18.694;2022-09-21T04:28:24;8.20;99.90
25825;DHT22;13658;44.534;18.694;2022-09-21T04:30:53;8.20;99.90
25825;DHT22;13658;44.534;18.694;2022-09-21T04:33:20;8.20;99.90
25825;DHT22;13658;44.534;18.694;2022-09-21T04:35:53;8.30;99.90
25825;DHT22;13658;44.534;18.694;2022-09-21T04:38:20;8.30;99.90
25825;DHT22;13658;44.534;18.694;2022-09-21T04:40:54;8.30;99.90
25825;DHT22;13658;44.534;18.694;2022-09-21T04:43:20;8.20;99.90
25825;DHT22;13658;44.534;18.694;2022-09-21T04:45:47;8.20;99.90
25825;DHT22;13658;44.534;18.694;2022-09-21T04:48:13;8.30;99.90
25825;DHT22;13658;44.534;18.694;2022-09-21T04:50:39;8.30;99.90
25825;DHT22;13658;44.534;18.694;2022-09-21T04:53:07;8.30;99.90
25825;DHT22;13658;44.534;18.694;2022-09-21T04:55:33;8.30;99.90
25825;DHT22;13658;44.534;18.694;2022-09-21T04:57:59;8.30;99.90
25825;DHT22;13658;44.534;18.694;2022-09-21T05:00:26;8.30;99.90
25825;DHT22;13658;44.534;18.694;2022-09-21T05:02:52;8.30;99.90
25825;DHT22;13658;44.534;18.694;2022-09-21T05:05:18;8.30;99.90
25825;DHT22;13658;44.534;18.694;2022-09-21T05:07:43;8.30;99.90
25825;DHT22;13658;44.534;18.694;2022-09-21T05:10:10;8.30;99.90
25825;DHT22;13658;44.534;18.694;2022-09-21T05:12:36;8.30;99.90
25825;DHT22;13658;44.534;18.694;2022-09-21T05:15:02;8.30;99.90
25825;DHT22;13658;44.534;18.694;2022-09-21T05:17:28;8.30;99.90
25825;DHT22;13658;44.534;18.694;2022-09-21T05:19:54;8.40;99.90
25825;DHT22;13658;44.534;18.694;2022-09-21T05:22:21;8.40;99.90
25825;DHT22;13658;44.534;18.694;2022-09-21T05:24:47;8.40;99.90
25825;DHT22;13658;44.534;18.694;2022-09-21T05:27:13;8.40;99.90
25825;DHT22;13658;44.534;18.694;2022-09-21T05:29:39;8.30;99.90
25825;DHT22;13658;44.534;18.694;2022-09-21T05:34:55;8.30;99.90
25825;DHT22;13658;44.534;18.694;2022-09-21T05:40:15;8.30;99.90
25825;DHT22;13658;44.534;18.694;2022-09-21T05:42:41;8.40;99.90
25825;DHT22;13658;44.534;18.694;2022-09-21T05:45:12;8.40;99.90
25825;DHT22;13658;44.534;18.694;2022-09-21T05:55:59;8.60;99.90
25825;DHT22;13658;44.534;18.694;2022-09-21T06:01:41;8.60;99.90
25825;DHT22;13658;44.534;18.694;2022-09-21T06:04:11;8.70;99.90
25825;DHT22;13658;44.534;18.694;2022-09-21T06:06:38;8.70;99.90
25825;DHT22;13658;44.534;18.694;2022-09-21T06:09:04;8.80;99.90
25825;DHT22;13658;44.534;18.694;2022-09-21T06:11:30;8.90;99.90
25825;DHT22;13658;44.534;18.694;2022-09-21T06:13:56;9.00;99.90
25825;DHT22;13658;44.534;18.694;2022-09-21T06:16:22;8.90;99.90
25825;DHT22;13658;44.534;18.694;2022-09-21T06:18:48;9.10;99.90
25825;DHT22;13658;44.534;18.694;2022-09-21T06:21:14;9.10;99.90
25825;DHT22;13658;44.534;18.694;2022-09-21T06:23:40;9.10;99.90
25825;DHT22;13658;44.534;18.694;2022-09-21T06:26:06;9.20;99.90
25825;DHT22;13658;44.534;18.694;2022-09-21T06:28:32;9.30;99.90
25825;DHT22;13658;44.534;18.694;2022-09-21T06:30:58;9.30;99.90
25825;DHT22;13658;44.534;18.694;2022-09-21T06:33:24;9.40;99.90
25825;DHT22;13658;44.534;18.694;2022-09-21T06:35:58;9.50;99.90
25825;DHT22;13658;44.534;18.694;2022-09-21T06:38:26;9.50;99.90
25825;DHT22;13658;44.534;18.694;2022-09-21T06:40:52;9.50;99.90
25825;DHT22;13658;44.534;18.694;2022-09-21T06:43:18;9.40;99.90
25825;DHT22;13658;44.534;18.694;2022-09-21T06:45:55;9.40;99.90
25825;DHT22;13658;44.534;18.694;2022-09-21T06:48:22;9.60;99.90
25825;DHT22;13658;44.534;18.694;2022-09-21T06:50:49;9.70;99.90
25825;DHT22;13658;44.534;18.694;2022-09-21T06:53:15;9.80;99.90
25825;DHT22;13658;44.534;18.694;2022-09-21T06:55:42;9.80;99.90
25825;DHT22;13658;44.534;18.694;2022-09-21T06:58:08;9.90;99.90
25825;DHT22;13658;44.534;18.694;2022-09-21T07:00:34;10.00;99.90
25825;DHT22;13658;44.534;18.694;2022-09-21T07:03:00;10.00;99.90
25825;DHT22;13658;44.534;18.694;2022-09-21T07:05:26;10.10;99.90
25825;DHT22;13658;44.534;18.694;2022-09-21T07:07:58;10.20;99.90
25825;DHT22;13658;44.534;18.694;2022-09-21T07:10:24;10.10;99.90
25825;DHT22;13658;44.534;18.694;2022-09-21T07:12:50;10.30;99.90
25825;DHT22;13658;44.534;18.694;2022-09-21T07:15:17;10.30;99.90
25825;DHT22;13658;44.534;18.694;2022-09-21T07:17:46;10.40;99.90
25825;DHT22;13658;44.534;18.694;2022-09-21T07:20:12;10.10;99.90
25825;DHT22;13658;44.534;18.694;2022-09-21T07:22:38;10.30;99.90
25825;DHT22;13658;44.534;18.694;2022-09-21T07:25:05;10.30;99.90
25825;DHT22;13658;44.534;18.694;2022-09-21T07:27:32;10.40;99.90
25825;DHT22;13658;44.534;18.694;2022-09-21T07:29:58;10.40;99.90
25825;DHT22;13658;44.534;18.694;2022-09-21T07:32:24;10.50;99.90
25825;DHT22;13658;44.534;18.694;2022-09-21T07:34:50;10.60;99.90
25825;DHT22;13658;44.534;18.694;2022-09-21T07:37:22;10.60;99.90
25825;DHT22;13658;44.534;18.694;2022-09-21T07:39:49;10.70;99.90
25825;DHT22;13658;44.534;18.694;2022-09-21T07:42:15;10.70;99.90
25825;DHT22;13658;44.534;18.694;2022-09-21T07:44:48;10.70;99.90
25825;DHT22;13658;44.534;18.694;2022-09-21T07:47:14;10.80;99.90
25825;DHT22;13658;44.534;18.694;2022-09-21T07:49:40;10.90;99.90
25825;DHT22;13658;44.534;18.694;2022-09-21T07:52:07;10.90;99.90
25825;DHT22;13658;44.534;18.694;2022-09-21T07:54:34;11.10;99.90
25825;DHT22;13658;44.534;18.694;2022-09-21T07:57:00;11.30;99.90
25825;DHT22;13658;44.534;18.694;2022-09-21T07:59:45;11.40;99.90
25825;DHT22;13658;44.534;18.694;2022-09-21T08:02:11;12.00;99.90
25825;DHT22;13658;44.534;18.694;2022-09-21T08:04:37;12.40;99.90
25825;DHT22;13658;44.534;18.694;2022-09-21T08:07:03;12.60;99.90
25825;DHT22;13658;44.534;18.694;2022-09-21T08:09:29;13.10;99.90
25825;DHT22;13658;44.534;18.694;2022-09-21T08:11:55;13.60;99.90
25825;DHT22;13658;44.534;18.694;2022-09-21T08:14:22;13.90;99.90
25825;DHT22;13658;44.534;18.694;2022-09-21T08:16:48;13.90;99.90
25825;DHT22;13658;44.534;18.694;2022-09-21T08:19:14;13.60;99.90
25825;DHT22;13658;44.534;18.694;2022-09-21T08:21:42;13.90;99.90
25825;DHT22;13658;44.534;18.694;2022-09-21T08:24:08;14.50;99.90
25825;DHT22;13658;44.534;18.694;2022-09-21T08:26:34;14.70;99.90
25825;DHT22;13658;44.534;18.694;2022-09-21T08:29:01;14.80;99.90
25825;DHT22;13658;44.534;18.694;2022-09-21T08:31:27;14.10;99.90
25825;DHT22;13658;44.534;18.694;2022-09-21T08:33:54;14.00;99.90
25825;DHT22;13658;44.534;18.694;2022-09-21T08:36:20;13.70;99.90
25825;DHT22;13658;44.534;18.694;2022-09-21T08:38:46;13.40;99.90
25825;DHT22;13658;44.534;18.694;2022-09-21T08:41:19;13.30;99.90
25825;DHT22;13658;44.534;18.694;2022-09-21T08:43:57;13.40;99.90
25825;DHT22;13658;44.534;18.694;2022-09-21T08:46:26;13.30;99.90
25825;DHT22;13658;44.534;18.694;2022-09-21T08:49:02;13.40;99.90
25825;DHT22;13658;44.534;18.694;2022-09-21T08:51:36;13.70;99.90
25825;DHT22;13658;44.534;18.694;2022-09-21T08:55:00;13.60;99.90
25825;DHT22;13658;44.534;18.694;2022-09-21T08:57:13;13.80;99.90
25825;DHT22;13658;44.534;18.694;2022-09-21T08:59:45;13.80;99.90
25825;DHT22;13658;44.534;18.694;2022-09-21T09:02:28;13.90;99.90
25825;DHT22;13658;44.534;18.694;2022-09-21T09:08:16;13.60;99.90
25825;DHT22;13658;44.534;18.694;2022-09-21T09:13:59;13.60;99.90
25825;DHT22;13658;44.534;18.694;2022-09-21T09:19:33;13.30;99.90
25825;DHT22;13658;44.534;18.694;2022-09-21T09:22:03;13.30;99.90
25825;DHT22;13658;44.534;18.694;2022-09-21T09:24:45;13.50;99.90
25825;DHT22;13658;44.534;18.694;2022-09-21T09:27:22;13.70;99.90
25825;DHT22;13658;44.534;18.694;2022-09-21T09:32:18;13.50;99.90
25825;DHT22;13658;44.534;18.694;2022-09-21T09:35:02;13.70;99.90
25825;DHT22;13658;44.534;18.694;2022-09-21T09:37:32;13.80;99.90
25825;DHT22;13658;44.534;18.694;2022-09-21T09:40:01;13.70;99.90
25825;DHT22;13658;44.534;18.694;2022-09-21T09:42:50;13.80;99.90
25825;DHT22;13658;44.534;18.694;2022-09-21T09:49:06;13.40;99.90
25825;DHT22;13658;44.534;18.694;2022-09-21T09:51:33;13.30;99.90
25825;DHT22;13658;44.534;18.694;2022-09-21T09:54:02;13.20;99.90
25825;DHT22;13658;44.534;18.694;2022-09-21T09:56:31;13.10;99.90
25825;DHT22;13658;44.534;18.694;2022-09-21T09:59:00;13.00;99.90
25825;DHT22;13658;44.534;18.694;2022-09-21T10:01:42;13.10;99.90
25825;DHT22;13658;44.534;18.694;2022-09-21T10:04:10;13.10;99.90
25825;DHT22;13658;44.534;18.694;2022-09-21T10:06:37;13.50;99.90
25825;DHT22;13658;44.534;18.694;2022-09-21T10:09:23;13.90;99.90
25825;DHT22;13658;44.534;18.694;2022-09-21T10:11:51;14.50;99.90
25825;DHT22;13658;44.534;18.694;2022-09-21T10:14:21;15.00;99.90
25825;DHT22;13658;44.534;18.694;2022-09-21T10:16:49;15.10;99.90
25825;DHT22;13658;44.534;18.694;2022-09-21T10:19:20;15.10;99.90
25825;DHT22;13658;44.534;18.694;2022-09-21T10:21:54;15.20;99.90
25825;DHT22;13658;44.534;18.694;2022-09-21T10:24:24;14.80;99.90
25825;DHT22;13658;44.534;18.694;2022-09-21T10:29:44;14.00;99.90
25825;DHT22;13658;44.534;18.694;2022-09-21T10:32:23;14.10;99.90
25825;DHT22;13658;44.534;18.694;2022-09-21T10:37:41;14.10;99.90
25825;DHT22;13658;44.534;18.694;2022-09-21T10:40:26;14.00;99.90
25825;DHT22;13658;44.534;18.694;2022-09-21T10:42:57;13.70;99.90
25825;DHT22;13658;44.534;18.694;2022-09-21T10:45:31;13.60;99.90
25825;DHT22;13658;44.534;18.694;2022-09-21T10:50:39;13.70;99.90
25825;DHT22;13658;44.534;18.694;2022-09-21T10:55:43;14.20;99.90
25825;DHT22;13658;44.534;18.694;2022-09-21T10:58:13;14.60;99.90
25825;DHT22;13658;44.534;18.694;2022-09-21T11:00:45;15.00;99.90
25825;DHT22;13658;44.534;18.694;2022-09-21T11:06:43;15.00;99.90
25825;DHT22;13658;44.534;18.694;2022-09-21T11:09:27;14.90;99.90
25825;DHT22;13658;44.534;18.694;2022-09-21T11:17:38;14.70;99.90
25825;DHT22;13658;44.534;18.694;2022-09-21T11:20:29;14.40;99.90
25825;DHT22;13658;44.534;18.694;2022-09-21T11:25:47;14.40;99.90
25825;DHT22;13658;44.534;18.694;2022-09-21T11:28:20;14.40;99.90
25825;DHT22;13658;44.534;18.694;2022-09-21T11:36:45;14.50;99.90
25825;DHT22;13658;44.534;18.694;2022-09-21T11:39:49;14.50;99.90
25825;DHT22;13658;44.534;18.694;2022-09-21T11:42:47;14.00;99.90
25825;DHT22;13658;44.534;18.694;2022-09-21T11:53:43;14.60;99.90
25825;DHT22;13658;44.534;18.694;2022-09-21T12:13:03;14.80;99.90
25825;DHT22;13658;44.534;18.694;2022-09-21T12:15:41;14.70;99.90
25825;DHT22;13658;44.534;18.694;2022-09-21T12:18:29;14.70;99.90
25825;DHT22;13658;44.534;18.694;2022-09-21T12:21:01;14.80;99.90
25825;DHT22;13658;44.534;18.694;2022-09-21T12:23:37;14.60;99.90
25825;DHT22;13658;44.534;18.694;2022-09-21T12:26:05;14.70;99.90
25825;DHT22;13658;44.534;18.694;2022-09-21T12:28:52;14.70;99.90
25825;DHT22;13658;44.534;18.694;2022-09-21T12:31:25;14.80;99.90
25825;DHT22;13658;44.534;18.694;2022-09-21T12:34:04;14.70;99.90
25825;DHT22;13658;44.534;18.694;2022-09-21T12:36:41;14.50;99.90
25825;DHT22;13658;44.534;18.694;2022-09-21T12:39:25;14.30;99.90
25825;DHT22;13658;44.534;18.694;2022-09-21T12:42:00;14.20;99.90
25825;DHT22;13658;44.534;18.694;2022-09-21T12:44:44;14.30;99.90
25825;DHT22;13658;44.534;18.694;2022-09-21T12:50:55;14.10;99.90
25825;DHT22;13658;44.534;18.694;2022-09-21T12:53:25;14.40;99.90
25825;DHT22;13658;44.534;18.694;2022-09-21T13:01:32;14.60;99.90
25825;DHT22;13658;44.534;18.694;2022-09-21T13:04:29;14.70;99.90
25825;DHT22;13658;44.534;18.694;2022-09-21T13:07:11;14.60;99.90
25825;DHT22;13658;44.534;18.694;2022-09-21T13:09:45;14.60;99.90
25825;DHT22;13658;44.534;18.694;2022-09-21T13:12:20;14.70;99.90
25825;DHT22;13658;44.534;18.694;2022-09-21T13:14:51;14.80;99.90
25825;DHT22;13658;44.534;18.694;2022-09-21T13:17:22;14.70;99.90
25825;DHT22;13658;44.534;18.694;2022-09-21T13:20:01;14.80;99.90
25825;DHT22;13658;44.534;18.694;2022-09-21T13:22:35;15.00;99.90
25825;DHT22;13658;44.534;18.694;2022-09-21T13:30:40;14.90;99.90
25825;DHT22;13658;44.534;18.694;2022-09-21T13:33:31;14.60;99.90
25825;DHT22;13658;44.534;18.694;2022-09-21T13:41:25;14.80;99.90
25825;DHT22;13658;44.534;18.694;2022-09-21T13:49:16;14.80;99.90
25825;DHT22;13658;44.534;18.694;2022-09-21T13:54:58;15.00;99.90
25825;DHT22;13658;44.534;18.694;2022-09-21T13:57:40;15.00;99.90
25825;DHT22;13658;44.534;18.694;2022-09-21T14:02:53;14.90;99.90
25825;DHT22;13658;44.534;18.694;2022-09-21T14:05:46;14.90;99.90
25825;DHT22;13658;44.534;18.694;2022-09-21T14:10:51;14.60;99.90
25825;DHT22;13658;44.534;18.694;2022-09-21T14:13:32;14.70;99.90
25825;DHT22;13658;44.534;18.694;2022-09-21T14:19:57;14.60;99.90
25825;DHT22;13658;44.534;18.694;2022-09-21T14:24:38;14.80;99.90
25825;DHT22;13658;44.534;18.694;2022-09-21T14:30:15;15.00;99.90
25825;DHT22;13658;44.534;18.694;2022-09-21T14:35:29;15.00;99.90
25825;DHT22;13658;44.534;18.694;2022-09-21T14:37:59;15.20;99.90
25825;DHT22;13658;44.534;18.694;2022-09-21T14:40:37;15.30;99.90
25825;DHT22;13658;44.534;18.694;2022-09-21T14:43:09;15.20;99.90
25825;DHT22;13658;44.534;18.694;2022-09-21T14:46:07;15.30;99.90
25825;DHT22;13658;44.534;18.694;2022-09-21T14:51:23;15.30;99.90
25825;DHT22;13658;44.534;18.694;2022-09-21T14:57:03;15.30;99.90
25825;DHT22;13658;44.534;18.694;2022-09-21T15:02:25;14.90;99.90
25825;DHT22;13658;44.534;18.694;2022-09-21T15:16:17;14.70;99.90
25825;DHT22;13658;44.534;18.694;2022-09-21T15:18:48;14.70;99.90
25825;DHT22;13658;44.534;18.694;2022-09-21T15:21:28;14.50;99.90
25825;DHT22;13658;44.534;18.694;2022-09-21T15:23:54;14.40;99.90
25825;DHT22;13658;44.534;18.694;2022-09-21T15:26:26;14.30;99.90
25825;DHT22;13658;44.534;18.694;2022-09-21T15:29:00;14.30;99.90
25825;DHT22;13658;44.534;18.694;2022-09-21T15:31:53;14.10;99.90
25825;DHT22;13658;44.534;18.694;2022-09-21T15:34:19;14.00;99.90
25825;DHT22;13658;44.534;18.694;2022-09-21T15:36:45;13.90;99.90
25825;DHT22;13658;44.534;18.694;2022-09-21T15:41:47;13.70;99.90
25825;DHT22;13658;44.534;18.694;2022-09-21T15:44:16;13.60;99.90
25825;DHT22;13658;44.534;18.694;2022-09-21T15:46:46;13.50;99.90
25825;DHT22;13658;44.534;18.694;2022-09-21T15:49:14;13.50;99.90
25825;DHT22;13658;44.534;18.694;2022-09-21T15:51:42;13.40;99.90
25825;DHT22;13658;44.534;18.694;2022-09-21T15:54:34;13.50;99.90
25825;DHT22;13658;44.534;18.694;2022-09-21T15:57:03;13.40;99.90
25825;DHT22;13658;44.534;18.694;2022-09-21T15:59:34;13.30;99.90
25825;DHT22;13658;44.534;18.694;2022-09-21T16:02:10;13.40;99.90
25825;DHT22;13658;44.534;18.694;2022-09-21T16:04:36;13.30;99.90
25825;DHT22;13658;44.534;18.694;2022-09-21T16:07:26;13.30;99.90
25825;DHT22;13658;44.534;18.694;2022-09-21T16:09:55;13.30;99.90
25825;DHT22;13658;44.534;18.694;2022-09-21T16:12:39;13.30;99.90
25825;DHT22;13658;44.534;18.694;2022-09-21T16:15:18;13.20;99.90
25825;DHT22;13658;44.534;18.694;2022-09-21T16:18:00;13.20;99.90
25825;DHT22;13658;44.534;18.694;2022-09-21T16:20:46;13.10;99.90
25825;DHT22;13658;44.534;18.694;2022-09-21T16:23:15;13.00;99.90
25825;DHT22;13658;44.534;18.694;2022-09-21T16:25:42;13.00;99.90
25825;DHT22;13658;44.534;18.694;2022-09-21T16:30:49;12.90;99.90
25825;DHT22;13658;44.534;18.694;2022-09-21T16:36:04;12.80;99.90
25825;DHT22;13658;44.534;18.694;2022-09-21T16:38:30;12.70;99.90
25825;DHT22;13658;44.534;18.694;2022-09-21T16:41:00;12.60;99.90
25825;DHT22;13658;44.534;18.694;2022-09-21T16:43:26;12.60;99.90
25825;DHT22;13658;44.534;18.694;2022-09-21T16:45:52;12.50;99.90
25825;DHT22;13658;44.534;18.694;2022-09-21T16:48:18;12.40;99.90
25825;DHT22;13658;44.534;18.694;2022-09-21T16:50:44;12.30;99.90
25825;DHT22;13658;44.534;18.694;2022-09-21T16:53:10;12.20;99.90
25825;DHT22;13658;44.534;18.694;2022-09-21T16:55:36;12.20;99.90
25825;DHT22;13658;44.534;18.694;2022-09-21T16:58:02;12.10;99.90
25825;DHT22;13658;44.534;18.694;2022-09-21T17:00:30;12.10;99.90
25825;DHT22;13658;44.534;18.694;2022-09-21T17:02:59;11.90;99.90
25825;DHT22;13658;44.534;18.694;2022-09-21T17:05:26;11.80;99.90
25825;DHT22;13658;44.534;18.694;2022-09-21T17:07:55;11.70;99.90
25825;DHT22;13658;44.534;18.694;2022-09-21T17:10:35;11.60;99.90
25825;DHT22;13658;44.534;18.694;2022-09-21T17:13:02;11.60;99.90
25825;DHT22;13658;44.534;18.694;2022-09-21T17:15:32;11.50;99.90
25825;DHT22;13658;44.534;18.694;2022-09-21T17:17:58;11.40;99.90
25825;DHT22;13658;44.534;18.694;2022-09-21T17:20:35;11.30;99.90
25825;DHT22;13658;44.534;18.694;2022-09-21T17:23:01;11.10;99.90
25825;DHT22;13658;44.534;18.694;2022-09-21T17:25:29;11.00;99.90
25825;DHT22;13658;44.534;18.694;2022-09-21T17:27:55;10.90;99.90
25825;DHT22;13658;44.534;18.694;2022-09-21T17:30:25;10.80;99.90
25825;DHT22;13658;44.534;18.694;2022-09-21T17:32:52;10.80;99.90
25825;DHT22;13658;44.534;18.694;2022-09-21T17:35:46;10.70;99.90
25825;DHT22;13658;44.534;18.694;2022-09-21T17:38:12;10.70;99.90
25825;DHT22;13658;44.534;18.694;2022-09-21T17:40:39;10.60;99.90
25825;DHT22;13658;44.534;18.694;2022-09-21T17:48:26;10.50;99.90
25825;DHT22;13658;44.534;18.694;2022-09-21T17:50:52;10.60;99.90
25825;DHT22;13658;44.534;18.694;2022-09-21T17:53:18;10.60;99.90
25825;DHT22;13658;44.534;18.694;2022-09-21T17:57:10;10.60;99.90
25825;DHT22;13658;44.534;18.694;2022-09-21T17:59:30;10.60;99.90
25825;DHT22;13658;44.534;18.694;2022-09-21T18:01:57;10.60;99.90
25825;DHT22;13658;44.534;18.694;2022-09-21T18:04:29;10.60;99.90
25825;DHT22;13658;44.534;18.694;2022-09-21T18:06:57;10.50;99.90
25825;DHT22;13658;44.534;18.694;2022-09-21T18:09:23;10.40;99.90
25825;DHT22;13658;44.534;18.694;2022-09-21T18:15:01;10.10;99.90
25825;DHT22;13658;44.534;18.694;2022-09-21T18:17:37;10.10;99.90
25825;DHT22;13658;44.534;18.694;2022-09-21T18:20:28;10.10;99.90
25825;DHT22;13658;44.534;18.694;2022-09-21T18:23:18;10.10;99.90
25825;DHT22;13658;44.534;18.694;2022-09-21T18:25:53;10.00;99.90
25825;DHT22;13658;44.534;18.694;2022-09-21T18:41:47;10.00;99.90
25825;DHT22;13658;44.534;18.694;2022-09-21T18:47:29;9.90;99.90
25825;DHT22;13658;44.534;18.694;2022-09-21T18:50:09;9.90;99.90
25825;DHT22;13658;44.534;18.694;2022-09-21T18:52:52;9.90;99.90
25825;DHT22;13658;44.534;18.694;2022-09-21T18:55:23;9.90;99.90
25825;DHT22;13658;44.534;18.694;2022-09-21T18:57:54;10.00;99.90
25825;DHT22;13658;44.534;18.694;2022-09-21T19:00:22;10.00;99.90
25825;DHT22;13658;44.534;18.694;2022-09-21T19:02:50;10.00;99.90
25825;DHT22;13658;44.534;18.694;2022-09-21T19:05:16;10.00;99.90
25825;DHT22;13658;44.534;18.694;2022-09-21T19:08:00;9.90;99.90
25825;DHT22;13658;44.534;18.694;2022-09-21T19:10:43;9.90;99.90
25825;DHT22;13658;44.534;18.694;2022-09-21T19:14:11;9.70;99.90
25825;DHT22;13658;44.534;18.694;2022-09-21T19:16:31;9.60;99.90
25825;DHT22;13658;44.534;18.694;2022-09-21T19:30:03;9.70;99.90